createdAt,value
2019-01-11T00:01:26.556Z,10.20
2019-01-11T00:06:13.040Z,10.73
2019-01-11T00:10:59.376Z,12.30
2019-01-11T00:15:45.894Z,12.87
2019-01-11T00:20:32.391Z,12.80
2019-01-11T00:25:18.782Z,13.80
2019-01-11T00:30:05.868Z,13.97
2019-01-11T00:34:52.197Z,12.87
2019-01-11T00:39:38.694Z,12.43
2019-01-11T00:44:25.067Z,11.50
2019-01-11T00:49:13.698Z,11.60
2019-01-11T00:53:59.321Z,11.83
2019-01-11T00:58:45.658Z,14.47
2019-01-11T01:03:32.117Z,13.37
2019-01-11T01:08:18.156Z,12.87
2019-01-11T01:13:04.080Z,12.37
2019-01-11T01:17:49.934Z,12.73
2019-01-11T01:22:35.982Z,12.27
2019-01-11T01:27:21.856Z,11.60
2019-01-11T01:32:08.340Z,11.97
2019-01-11T01:36:54.177Z,13.30
2019-01-11T01:41:40.104Z,14.27
2019-01-11T01:46:26.394Z,14.70
2019-01-11T01:51:12.585Z,13.37
2019-01-11T01:55:58.889Z,12.37
2019-01-11T02:00:45.406Z,11.80
2019-01-11T02:05:31.220Z,11.77
2019-01-11T02:10:17.588Z,11.40
2019-01-11T02:15:03.922Z,9.93
2019-01-11T02:19:50.232Z,9.70
2019-01-11T02:24:36.361Z,8.07
2019-01-11T02:29:22.559Z,7.70
2019-01-11T02:34:08.915Z,8.40
2019-01-11T02:38:55.118Z,7.60
2019-01-11T02:43:41.403Z,7.80
2019-01-11T02:48:27.613Z,8.00
2019-01-11T02:53:13.833Z,7.73
2019-01-11T02:58:00.115Z,7.53
2019-01-11T03:02:46.195Z,7.03
2019-01-11T03:07:32.402Z,8.00
2019-01-11T03:12:18.645Z,8.63
2019-01-11T03:17:04.621Z,8.43
2019-01-11T03:21:50.896Z,8.47
2019-01-11T03:26:36.694Z,8.43
2019-01-11T03:31:37.635Z,8.90
2019-01-11T03:36:23.322Z,8.33
2019-01-11T03:41:09.105Z,8.63
2019-01-11T03:45:54.827Z,9.10
2019-01-11T03:50:40.745Z,8.90
2019-01-11T03:55:26.517Z,8.63
2019-01-11T04:00:23.365Z,8.90
2019-01-11T04:05:09.450Z,8.40
2019-01-11T04:09:55.198Z,8.90
2019-01-11T04:14:40.905Z,8.40
2019-01-11T04:19:26.686Z,9.93
2019-01-11T04:24:12.407Z,9.70
2019-01-11T04:28:58.175Z,10.13
2019-01-11T04:33:43.887Z,9.47
2019-01-11T04:38:29.763Z,10.80
2019-01-11T04:43:15.530Z,10.60
2019-01-11T04:48:01.248Z,13.80
2019-01-11T04:52:47.130Z,15.90
2019-01-11T04:57:33.645Z,14.97
2019-01-11T05:02:19.749Z,13.87
2019-01-11T05:07:05.591Z,13.47
2019-01-11T05:11:51.321Z,13.07
2019-01-11T05:16:39.584Z,12.60
2019-01-11T05:21:24.946Z,13.03
2019-01-11T05:26:10.729Z,11.30
2019-01-11T05:30:56.686Z,11.80
2019-01-11T05:35:42.552Z,12.37
2019-01-11T05:40:28.336Z,13.00
2019-01-11T05:45:14.371Z,15.80
2019-01-11T05:50:00.180Z,17.23
2019-01-11T05:54:46.008Z,11.80
2019-01-11T05:59:31.824Z,10.63
2019-01-11T06:04:55.108Z,13.77
2019-01-11T06:09:41.642Z,13.17
2019-01-11T06:14:27.455Z,14.60
2019-01-11T06:19:13.263Z,9.37
2019-01-11T06:23:58.964Z,16.43
2019-01-11T06:28:44.736Z,13.03
2019-01-11T06:33:30.529Z,13.87
2019-01-11T06:38:16.747Z,9.20
2019-01-11T06:43:03.632Z,9.13
2019-01-11T06:47:51.206Z,11.20
2019-01-11T06:52:37.103Z,12.93
2019-01-11T06:57:22.789Z,14.87
2019-01-11T07:02:08.768Z,12.60
2019-01-11T07:06:54.495Z,12.27
2019-01-11T07:11:41.950Z,12.17
2019-01-11T07:16:27.663Z,13.60
2019-01-11T07:21:13.572Z,13.20
2019-01-11T07:25:59.460Z,12.97
2019-01-11T07:31:11.766Z,12.63
2019-01-11T07:36:16.721Z,6.07
2019-01-11T07:41:02.527Z,10.23
2019-01-11T07:45:48.424Z,12.43
2019-01-11T07:50:34.285Z,16.10
2019-01-11T07:55:20.202Z,12.63
2019-01-11T08:00:08.125Z,12.30
2019-01-11T08:04:53.856Z,14.83
2019-01-11T08:09:39.612Z,13.17
2019-01-11T08:14:25.646Z,14.43
2019-01-11T08:19:11.377Z,15.47
2019-01-11T08:23:57.133Z,12.97
2019-01-11T08:28:42.995Z,11.30
2019-01-11T08:33:30.303Z,11.20
2019-01-11T08:38:16.181Z,11.83
2019-01-11T08:43:01.928Z,13.10
2019-01-11T08:47:47.679Z,15.27
2019-01-11T08:52:33.426Z,12.57
2019-01-11T08:57:19.298Z,11.50
2019-01-11T09:02:05.126Z,10.53
2019-01-11T09:06:50.841Z,10.73
2019-01-11T09:11:36.650Z,9.73
2019-01-11T09:16:22.430Z,8.63
2019-01-11T09:21:09.650Z,8.20
2019-01-11T09:25:55.624Z,7.90
2019-01-11T09:30:41.544Z,7.93
2019-01-11T09:35:27.455Z,7.33
2019-01-11T09:40:13.536Z,8.77
2019-01-11T09:44:59.249Z,8.20
2019-01-11T09:49:45.212Z,10.17
2019-01-11T09:54:30.975Z,9.03
2019-01-11T09:59:16.752Z,8.07
2019-01-11T10:04:02.478Z,9.47
2019-01-11T10:08:48.242Z,8.27
2019-01-11T10:13:33.920Z,7.73
2019-01-11T10:18:19.815Z,9.77
2019-01-11T10:23:05.625Z,9.60
2019-01-11T10:27:51.624Z,8.20
2019-01-11T10:32:37.445Z,7.40
2019-01-11T10:37:23.270Z,8.70
2019-01-11T10:42:09.087Z,9.60
2019-01-11T10:46:54.831Z,9.83
2019-01-11T10:51:40.554Z,9.23
2019-01-11T10:56:26.317Z,10.73
2019-01-11T11:01:11.985Z,10.57
2019-01-11T11:05:57.799Z,8.27
2019-01-11T11:10:43.547Z,7.00
2019-01-11T11:15:29.485Z,11.83
2019-01-11T11:20:17.208Z,9.20
2019-01-11T11:25:03.050Z,7.67
2019-01-11T11:29:48.863Z,7.97
2019-01-11T11:34:36.259Z,9.70
2019-01-11T11:39:22.034Z,6.43
2019-01-11T11:44:07.782Z,7.43
2019-01-11T11:48:54.376Z,7.20
2019-01-11T11:53:40.242Z,8.93
2019-01-11T11:58:26.029Z,7.93
2019-01-11T12:03:11.766Z,8.50
2019-01-11T12:07:57.860Z,8.57
2019-01-11T12:12:43.742Z,8.30
2019-01-11T12:17:29.532Z,8.63
2019-01-11T12:22:15.536Z,9.33
2019-01-11T12:27:01.468Z,8.17
2019-01-11T12:31:47.569Z,6.80
2019-01-11T12:36:33.500Z,7.83
2019-01-11T12:41:19.468Z,8.43
2019-01-11T12:46:05.268Z,7.30
2019-01-11T12:50:51.798Z,6.53
2019-01-11T12:55:38.106Z,6.90
2019-01-11T13:00:24.265Z,6.80
2019-01-11T13:05:12.030Z,8.03
2019-01-11T13:09:58.581Z,7.50
2019-01-11T13:14:44.343Z,7.20
2019-01-11T13:19:30.231Z,8.17
2019-01-11T13:24:16.140Z,7.80
2019-01-11T13:29:01.983Z,8.90
2019-01-11T13:33:47.809Z,8.30
2019-01-11T13:38:33.912Z,8.90
2019-01-11T13:43:19.807Z,7.93
2019-01-11T13:48:05.850Z,8.13
2019-01-11T13:52:51.601Z,8.30
2019-01-11T13:57:37.383Z,5.43
2019-01-11T14:02:23.471Z,6.50
2019-01-11T14:07:09.286Z,6.80
2019-01-11T14:11:55.170Z,6.33
2019-01-11T14:16:41.044Z,6.23
2019-01-11T14:21:26.863Z,5.33
2019-01-11T14:26:12.741Z,6.27
2019-01-11T14:30:58.753Z,7.60
2019-01-11T14:35:45.137Z,8.10
2019-01-11T14:40:31.054Z,8.23
2019-01-11T14:45:17.720Z,8.87
2019-01-11T14:50:03.617Z,10.17
2019-01-11T14:54:49.352Z,9.90
2019-01-11T14:59:35.154Z,9.93
2019-01-11T15:04:20.979Z,9.03
2019-01-11T15:09:08.974Z,10.07
2019-01-11T15:13:54.879Z,8.73
2019-01-11T15:18:40.639Z,9.07
2019-01-11T15:23:26.413Z,8.90
2019-01-11T15:28:12.277Z,12.43
2019-01-11T15:32:58.268Z,11.87
2019-01-11T15:37:44.329Z,12.53
2019-01-11T15:42:30.379Z,16.20
2019-01-11T15:47:16.391Z,10.03
2019-01-11T15:52:02.252Z,9.70
2019-01-11T15:56:48.098Z,10.30
2019-01-11T16:01:34.069Z,13.73
2019-01-11T16:06:40.733Z,13.10
2019-01-11T16:11:39.712Z,13.23
2019-01-11T16:16:35.764Z,12.47
2019-01-11T16:21:21.706Z,13.20
2019-01-11T16:26:07.654Z,13.37
2019-01-11T16:30:53.626Z,13.03
2019-01-11T16:35:39.845Z,14.07
2019-01-11T16:40:25.638Z,13.80
2019-01-11T16:45:12.712Z,13.43
2019-01-11T16:49:58.603Z,13.57
2019-01-11T16:54:44.813Z,12.60
2019-01-11T16:59:30.762Z,12.57
2019-01-11T17:04:16.647Z,14.30
2019-01-11T17:09:02.519Z,12.20
2019-01-11T17:13:48.336Z,12.33
2019-01-11T17:18:34.115Z,15.17
2019-01-11T17:23:20.055Z,14.53
2019-01-11T17:28:05.884Z,13.23
2019-01-11T17:32:51.791Z,11.90
2019-01-11T17:37:37.739Z,9.37
2019-01-11T17:42:23.591Z,8.07
2019-01-11T17:47:09.487Z,10.37
2019-01-11T17:51:56.127Z,11.27
2019-01-11T17:56:42.192Z,12.60
2019-01-11T18:01:28.134Z,9.63
2019-01-11T18:06:14.078Z,7.60
2019-01-11T18:10:59.938Z,6.13
2019-01-11T18:15:45.836Z,5.17
2019-01-11T18:20:31.636Z,4.40
2019-01-11T18:25:17.795Z,3.57
2019-01-11T18:30:03.956Z,3.07
2019-01-11T18:34:49.850Z,2.73
2019-01-11T18:39:35.655Z,2.63
2019-01-11T18:44:21.573Z,1.70
2019-01-11T18:49:07.537Z,2.03
2019-01-11T18:53:53.516Z,1.67
2019-01-11T18:58:39.396Z,3.30
2019-01-11T19:03:25.304Z,2.57
2019-01-11T19:08:11.362Z,2.63
2019-01-11T19:12:57.369Z,2.40
2019-01-11T19:17:43.180Z,2.80
2019-01-11T19:22:29.309Z,2.40
2019-01-11T19:27:15.729Z,2.40
2019-01-11T19:32:02.060Z,2.20
2019-01-11T19:36:48.032Z,2.77
2019-01-11T19:41:34.233Z,2.70
2019-01-11T19:46:20.080Z,2.50
2019-01-11T19:51:06.238Z,2.47
2019-01-11T19:55:58.541Z,2.33
2019-01-11T20:00:39.609Z,2.93
2019-01-11T20:05:26.261Z,2.30
2019-01-11T20:10:15.018Z,3.40
2019-01-11T20:15:04.844Z,3.90
2019-01-11T20:19:50.846Z,3.60
2019-01-11T20:24:37.790Z,4.27
2019-01-11T20:29:24.012Z,5.63
2019-01-11T20:34:10.079Z,7.13
2019-01-11T20:38:56.058Z,6.20
2019-01-11T20:43:42.115Z,7.27
2019-01-11T20:48:28.259Z,8.23
2019-01-11T20:53:14.559Z,9.60
2019-01-11T20:58:00.782Z,9.37
2019-01-11T21:02:47.086Z,10.17
2019-01-11T21:07:33.278Z,11.50
2019-01-11T21:12:19.412Z,10.20
2019-01-11T21:17:05.563Z,11.07
2019-01-11T21:21:52.073Z,10.47
2019-01-11T21:26:38.163Z,9.13
2019-01-11T21:31:24.204Z,9.13
2019-01-11T21:36:10.448Z,8.87
2019-01-11T21:40:56.366Z,8.27
2019-01-11T21:45:42.360Z,9.17
2019-01-11T21:50:29.588Z,8.97
2019-01-11T21:55:16.024Z,8.53
2019-01-11T22:00:02.104Z,7.07
2019-01-11T22:04:48.024Z,6.47
2019-01-11T22:09:33.962Z,4.90
2019-01-11T22:14:19.848Z,4.73
2019-01-11T22:19:05.949Z,3.97
2019-01-11T22:23:52.004Z,3.47
2019-01-11T22:28:37.998Z,4.13
2019-01-11T22:33:23.917Z,4.53
2019-01-11T22:38:09.921Z,4.00
2019-01-11T22:42:58.958Z,4.30
2019-01-11T22:47:45.019Z,3.37
2019-01-11T22:52:30.986Z,3.80
2019-01-11T22:57:16.848Z,2.93
2019-01-11T23:02:17.839Z,3.27
2019-01-11T23:07:08.309Z,3.23
2019-01-11T23:12:15.694Z,3.53
2019-01-11T23:17:11.884Z,3.10
2019-01-11T23:21:58.116Z,3.10
2019-01-11T23:26:44.152Z,2.80
2019-01-11T23:31:29.889Z,3.10
2019-01-11T23:36:15.666Z,3.80
2019-01-11T23:41:01.743Z,4.10
2019-01-11T23:45:47.497Z,5.07
2019-01-11T23:50:33.253Z,5.27
2019-01-11T23:55:19.078Z,6.67
